Taylor, Alabama
Current Conditions -  °F | °C
As of 11:53 AM on Saturday 25 Oct 2014 (Local Time) from KDHN Reporting Station
Clear Clear  
Wind Chill: 73°   Ceiling: Unl
Heat Index: 73°   Visibility: 10mi
Dew Point: 46°   Wind: 8mph
Humidity: 38%   Direction: 340°NNW
Pressure: 30.1"   Gusts: NA
Location:  31.2302°N, 85.4698°W
Report Text: KDHN 251653Z 34007KT 10SM CLR 23/08 A3010 RMK AO2 SLP188 T02280078
Loading
Personal Weather Stations






























Interactive Weather Map
Tropical Storm Tracking
New forecast layout! Learn more

10-Day Weather Forecast

Advertisements
Track Severe Weather on mobile